sensor_id;sensor_type;location;lat;lon;timestamp;pressure;altitude;pressure_sealevel;temperature;humidity
7614;BME280;3848;42.016;23.098;2023-02-17T00:02:04;98290.22;;;1.13;100.00
7614;BME280;3848;42.016;23.098;2023-02-17T00:04:31;98298.13;;;1.22;100.00
7614;BME280;3848;42.016;23.098;2023-02-17T00:07:00;98298.31;;;1.25;100.00
7614;BME280;3848;42.016;23.098;2023-02-17T00:09:26;98287.50;;;1.26;100.00
7614;BME280;3848;42.016;23.098;2023-02-17T00:11:53;98289.16;;;1.26;100.00
7614;BME280;3848;42.016;23.098;2023-02-17T00:14:20;98283.19;;;1.23;100.00
7614;BME280;3848;42.016;23.098;2023-02-17T00:16:47;98285.13;;;1.11;100.00
7614;BME280;3848;42.016;23.098;2023-02-17T00:19:14;98284.91;;;1.07;100.00
7614;BME280;3848;42.016;23.098;2023-02-17T00:21:49;98285.31;;;0.98;100.00
7614;BME280;3848;42.016;23.098;2023-02-17T00:24:18;98225.09;;;0.59;100.00
7614;BME280;3848;42.016;23.098;2023-02-17T00:26:44;98286.47;;;0.87;100.00
7614;BME280;3848;42.016;23.098;2023-02-17T00:29:11;98287.09;;;0.83;100.00
7614;BME280;3848;42.016;23.098;2023-02-17T00:31:38;98287.19;;;0.84;100.00
7614;BME280;3848;42.016;23.098;2023-02-17T00:34:05;98287.19;;;0.84;100.00
7614;BME280;3848;42.016;23.098;2023-02-17T00:36:32;98280.00;;;0.74;100.00
7614;BME280;3848;42.016;23.098;2023-02-17T00:38:59;98280.84;;;0.75;100.00
7614;BME280;3848;42.016;23.098;2023-02-17T00:41:28;98265.50;;;0.67;100.00
7614;BME280;3848;42.016;23.098;2023-02-17T00:43:55;98281.78;;;0.77;100.00
7614;BME280;3848;42.016;23.098;2023-02-17T00:46:22;98271.63;;;0.74;100.00
7614;BME280;3848;42.016;23.098;2023-02-17T00:48:48;98268.91;;;0.69;100.00
7614;BME280;3848;42.016;23.098;2023-02-17T00:51:16;98268.72;;;0.65;100.00
7614;BME280;3848;42.016;23.098;2023-02-17T00:53:43;98267.28;;;0.70;100.00
7614;BME280;3848;42.016;23.098;2023-02-17T00:56:11;98268.13;;;0.70;100.00
7614;BME280;3848;42.016;23.098;2023-02-17T00:58:39;98241.03;;;0.61;100.00
7614;BME280;3848;42.016;23.098;2023-02-17T01:01:07;98268.72;;;0.65;100.00
7614;BME280;3848;42.016;23.098;2023-02-17T01:03:33;98188.41;;;0.24;100.00
7614;BME280;3848;42.016;23.098;2023-02-17T01:06:05;98254.63;;;0.67;100.00
7614;BME280;3848;42.016;23.098;2023-02-17T01:08:32;98259.63;;;0.67;100.00
7614;BME280;3848;42.016;23.098;2023-02-17T01:10:59;98251.19;;;0.65;100.00
7614;BME280;3848;42.016;23.098;2023-02-17T01:13:25;98248.00;;;0.67;100.00
7614;BME280;3848;42.016;23.098;2023-02-17T01:15:54;98240.34;;;0.64;100.00
7614;BME280;3848;42.016;23.098;2023-02-17T01:18:22;98233.09;;;0.52;100.00
7614;BME280;3848;42.016;23.098;2023-02-17T01:20:50;98234.38;;;0.44;100.00
7614;BME280;3848;42.016;23.098;2023-02-17T01:23:17;98204.19;;;0.23;100.00
7614;BME280;3848;42.016;23.098;2023-02-17T01:25:45;98232.41;;;0.39;100.00
7614;BME280;3848;42.016;23.098;2023-02-17T01:28:15;98234.13;;;0.40;100.00
7614;BME280;3848;42.016;23.098;2023-02-17T01:30:42;98230.53;;;0.35;100.00
7614;BME280;3848;42.016;23.098;2023-02-17T01:33:10;98231.88;;;0.28;100.00
7614;BME280;3848;42.016;23.098;2023-02-17T01:35:37;98242.59;;;0.25;100.00
7614;BME280;3848;42.016;23.098;2023-02-17T01:38:03;98236.59;;;0.22;100.00
7614;BME280;3848;42.016;23.098;2023-02-17T01:40:30;98236.75;;;0.25;100.00
7614;BME280;3848;42.016;23.098;2023-02-17T01:42:57;98237.03;;;0.31;100.00
7614;BME280;3848;42.016;23.098;2023-02-17T01:45:34;98238.81;;;0.34;100.00
7614;BME280;3848;42.016;23.098;2023-02-17T01:48:05;98238.75;;;0.32;100.00
7614;BME280;3848;42.016;23.098;2023-02-17T01:50:38;98237.66;;;0.27;100.00
7614;BME280;3848;42.016;23.098;2023-02-17T01:53:06;98139.91;;;-0.29;100.00
7614;BME280;3848;42.016;23.098;2023-02-17T01:55:36;98234.53;;;0.31;100.00
7614;BME280;3848;42.016;23.098;2023-02-17T01:58:05;98221.59;;;0.22;100.00
7614;BME280;3848;42.016;23.098;2023-02-17T02:00:34;98225.88;;;0.24;100.00
7614;BME280;3848;42.016;23.098;2023-02-17T02:03:03;98231.75;;;0.25;100.00
7614;BME280;3848;42.016;23.098;2023-02-17T02:05:33;98238.31;;;0.23;100.00
7614;BME280;3848;42.016;23.098;2023-02-17T02:08:01;98239.88;;;0.21;100.00
7614;BME280;3848;42.016;23.098;2023-02-17T02:10:28;98222.25;;;0.02;100.00
7614;BME280;3848;42.016;23.098;2023-02-17T02:12:55;98242.19;;;0.18;100.00
7614;BME280;3848;42.016;23.098;2023-02-17T02:15:25;98237.19;;;0.18;100.00
7614;BME280;3848;42.016;23.098;2023-02-17T02:18:04;98239.25;;;0.09;100.00
7614;BME280;3848;42.016;23.098;2023-02-17T02:20:56;98252.91;;;-0.01;100.00
7614;BME280;3848;42.016;23.098;2023-02-17T02:27:00;98253.91;;;-0.30;100.00
7614;BME280;3848;42.016;23.098;2023-02-17T02:33:01;98261.34;;;-0.46;100.00
7614;BME280;3848;42.016;23.098;2023-02-17T02:35:37;98259.94;;;-0.57;100.00
7614;BME280;3848;42.016;23.098;2023-02-17T02:38:12;98261.44;;;-0.61;100.00
7614;BME280;3848;42.016;23.098;2023-02-17T02:40:43;98243.22;;;-0.75;100.00
7614;BME280;3848;42.016;23.098;2023-02-17T02:43:12;98262.28;;;-0.60;100.00
7614;BME280;3848;42.016;23.098;2023-02-17T02:45:39;98262.94;;;-0.63;100.00
7614;BME280;3848;42.016;23.098;2023-02-17T02:48:08;98254.03;;;-0.74;100.00
7614;BME280;3848;42.016;23.098;2023-02-17T02:51:04;98268.63;;;-0.66;100.00
7614;BME280;3848;42.016;23.098;2023-02-17T02:56:29;98260.06;;;-0.71;100.00
7614;BME280;3848;42.016;23.098;2023-02-17T02:59:05;98271.59;;;-0.73;100.00
7614;BME280;3848;42.016;23.098;2023-02-17T03:01:43;98246.09;;;-0.98;100.00
7614;BME280;3848;42.016;23.098;2023-02-17T03:04:17;98272.13;;;-0.93;100.00
7614;BME280;3848;42.016;23.098;2023-02-17T03:06:48;98270.94;;;-1.00;100.00
7614;BME280;3848;42.016;23.098;2023-02-17T03:09:20;98276.63;;;-1.02;100.00
7614;BME280;3848;42.016;23.098;2023-02-17T03:11:48;98268.28;;;-1.17;100.00
7614;BME280;3848;42.016;23.098;2023-02-17T03:14:17;98273.19;;;-1.19;100.00
7614;BME280;3848;42.016;23.098;2023-02-17T03:16:46;98273.81;;;-1.23;100.00
7614;BME280;3848;42.016;23.098;2023-02-17T03:19:16;98278.78;;;-1.23;100.00
7614;BME280;3848;42.016;23.098;2023-02-17T03:21:47;98278.09;;;-1.20;100.00
7614;BME280;3848;42.016;23.098;2023-02-17T03:24:15;98281.00;;;-1.13;100.00
7614;BME280;3848;42.016;23.098;2023-02-17T03:26:43;98277.13;;;-1.08;100.00
7614;BME280;3848;42.016;23.098;2023-02-17T03:29:09;98266.66;;;-1.02;100.00
7614;BME280;3848;42.016;23.098;2023-02-17T03:31:36;98281.94;;;-0.96;100.00
7614;BME280;3848;42.016;23.098;2023-02-17T03:34:05;98282.28;;;-0.90;100.00
7614;BME280;3848;42.016;23.098;2023-02-17T03:36:33;98252.09;;;-0.95;100.00
7614;BME280;3848;42.016;23.098;2023-02-17T03:39:00;98282.09;;;-0.78;100.00
7614;BME280;3848;42.016;23.098;2023-02-17T03:41:27;98283.13;;;-0.75;100.00
7614;BME280;3848;42.016;23.098;2023-02-17T03:43:53;98283.91;;;-0.76;100.00
7614;BME280;3848;42.016;23.098;2023-02-17T03:46:20;98285.88;;;-0.70;100.00
7614;BME280;3848;42.016;23.098;2023-02-17T03:48:47;98281.50;;;-0.74;100.00
7614;BME280;3848;42.016;23.098;2023-02-17T03:51:15;98284.53;;;-0.80;100.00
7614;BME280;3848;42.016;23.098;2023-02-17T03:53:44;98283.75;;;-0.79;100.00
7614;BME280;3848;42.016;23.098;2023-02-17T03:56:12;98292.50;;;-0.71;100.00
7614;BME280;3848;42.016;23.098;2023-02-17T03:58:40;98288.34;;;-0.70;100.00
7614;BME280;3848;42.016;23.098;2023-02-17T04:01:08;98290.16;;;-0.68;100.00
7614;BME280;3848;42.016;23.098;2023-02-17T04:03:35;98274.47;;;-0.65;100.00
7614;BME280;3848;42.016;23.098;2023-02-17T04:06:03;98286.25;;;-0.63;100.00
7614;BME280;3848;42.016;23.098;2023-02-17T04:08:30;98283.59;;;-0.66;100.00
7614;BME280;3848;42.016;23.098;2023-02-17T04:10:59;98279.66;;;-0.62;100.00
7614;BME280;3848;42.016;23.098;2023-02-17T04:13:27;98288.44;;;-0.69;100.00
7614;BME280;3848;42.016;23.098;2023-02-17T04:15:54;98279.47;;;-0.65;100.00
7614;BME280;3848;42.016;23.098;2023-02-17T04:18:21;98286.47;;;-0.74;100.00
7614;BME280;3848;42.016;23.098;2023-02-17T04:20:49;98285.97;;;-0.83;100.00
7614;BME280;3848;42.016;23.098;2023-02-17T04:23:17;98278.53;;;-0.98;100.00
7614;BME280;3848;42.016;23.098;2023-02-17T04:25:44;98292.88;;;-0.94;100.00
7614;BME280;3848;42.016;23.098;2023-02-17T04:28:13;98288.22;;;-0.88;100.00
7614;BME280;3848;42.016;23.098;2023-02-17T04:30:42;98279.16;;;-0.86;100.00
7614;BME280;3848;42.016;23.098;2023-02-17T04:33:09;98286.25;;;-0.79;100.00
7614;BME280;3848;42.016;23.098;2023-02-17T04:35:36;98288.66;;;-0.80;100.00
7614;BME280;3848;42.016;23.098;2023-02-17T04:38:03;98286.94;;;-0.81;100.00
7614;BME280;3848;42.016;23.098;2023-02-17T04:40:29;98294.66;;;-0.92;100.00
7614;BME280;3848;42.016;23.098;2023-02-17T04:42:56;98288.81;;;-0.92;100.00
7614;BME280;3848;42.016;23.098;2023-02-17T04:45:24;98278.69;;;-0.95;100.00
7614;BME280;3848;42.016;23.098;2023-02-17T04:47:51;98286.94;;;-0.96;100.00
7614;BME280;3848;42.016;23.098;2023-02-17T04:50:18;98211.72;;;-1.48;100.00
7614;BME280;3848;42.016;23.098;2023-02-17T04:52:45;98292.53;;;-1.00;100.00
7614;BME280;3848;42.016;23.098;2023-02-17T04:55:12;98286.63;;;-1.02;100.00
7614;BME280;3848;42.016;23.098;2023-02-17T04:57:38;98293.81;;;-1.07;100.00
7614;BME280;3848;42.016;23.098;2023-02-17T05:00:06;98291.94;;;-1.11;100.00
7614;BME280;3848;42.016;23.098;2023-02-17T05:02:35;98295.19;;;-1.12;100.00
7614;BME280;3848;42.016;23.098;2023-02-17T05:05:01;98291.94;;;-1.11;100.00
7614;BME280;3848;42.016;23.098;2023-02-17T05:07:28;98273.13;;;-1.20;100.00
7614;BME280;3848;42.016;23.098;2023-02-17T05:09:55;98301.13;;;-1.10;100.00
7614;BME280;3848;42.016;23.098;2023-02-17T05:12:22;98286.75;;;-1.29;100.00
7614;BME280;3848;42.016;23.098;2023-02-17T05:14:49;98309.50;;;-1.24;100.00
7614;BME280;3848;42.016;23.098;2023-02-17T05:17:16;98311.69;;;-1.29;100.00
7614;BME280;3848;42.016;23.098;2023-02-17T05:19:44;98306.53;;;-1.32;100.00
7614;BME280;3848;42.016;23.098;2023-02-17T05:22:11;98299.97;;;-1.59;100.00
7614;BME280;3848;42.016;23.098;2023-02-17T05:24:37;98298.31;;;-1.73;100.00
7614;BME280;3848;42.016;23.098;2023-02-17T05:27:04;98313.16;;;-1.75;100.00
7614;BME280;3848;42.016;23.098;2023-02-17T05:29:31;98313.31;;;-1.87;100.00
7614;BME280;3848;42.016;23.098;2023-02-17T05:31:58;98308.19;;;-2.03;100.00
7614;BME280;3848;42.016;23.098;2023-02-17T05:34:25;98326.47;;;-2.02;100.00
7614;BME280;3848;42.016;23.098;2023-02-17T05:36:53;98332.25;;;-2.03;100.00
7614;BME280;3848;42.016;23.098;2023-02-17T05:39:20;98295.22;;;-2.25;100.00
7614;BME280;3848;42.016;23.098;2023-02-17T05:41:46;98318.94;;;-2.04;100.00
7614;BME280;3848;42.016;23.098;2023-02-17T05:44:13;98323.41;;;-1.98;100.00
7614;BME280;3848;42.016;23.098;2023-02-17T05:46:40;98321.28;;;-1.92;100.00
7614;BME280;3848;42.016;23.098;2023-02-17T05:49:07;98312.56;;;-1.86;100.00
7614;BME280;3848;42.016;23.098;2023-02-17T05:51:34;98314.06;;;-1.88;100.00
7614;BME280;3848;42.016;23.098;2023-02-17T05:54:02;98332.28;;;-1.89;100.00
7614;BME280;3848;42.016;23.098;2023-02-17T05:56:29;98340.97;;;-1.82;100.00
7614;BME280;3848;42.016;23.098;2023-02-17T05:58:56;98331.72;;;-1.85;100.00
7614;BME280;3848;42.016;23.098;2023-02-17T06:01:23;98329.66;;;-1.77;100.00
7614;BME280;3848;42.016;23.098;2023-02-17T06:03:49;98324.63;;;-1.92;100.00
7614;BME280;3848;42.016;23.098;2023-02-17T06:06:16;98343.09;;;-1.88;100.00
7614;BME280;3848;42.016;23.098;2023-02-17T06:08:43;98348.84;;;-1.89;100.00
7614;BME280;3848;42.016;23.098;2023-02-17T06:11:11;98324.09;;;-2.01;100.00
7614;BME280;3848;42.016;23.098;2023-02-17T06:13:38;98342.34;;;-1.87;100.00
7614;BME280;3848;42.016;23.098;2023-02-17T06:16:05;98338.00;;;-1.76;100.00
7614;BME280;3848;42.016;23.098;2023-02-17T06:18:32;98346.75;;;-1.68;100.00
7614;BME280;3848;42.016;23.098;2023-02-17T06:20:59;98339.06;;;-1.58;100.00
7614;BME280;3848;42.016;23.098;2023-02-17T06:23:26;98346.81;;;-1.54;100.00
7614;BME280;3848;42.016;23.098;2023-02-17T06:25:53;98350.34;;;-1.50;100.00
7614;BME280;3848;42.016;23.098;2023-02-17T06:28:22;98346.19;;;-1.64;100.00
7614;BME280;3848;42.016;23.098;2023-02-17T06:30:48;98320.56;;;-1.76;100.00
7614;BME280;3848;42.016;23.098;2023-02-17T06:33:15;98337.19;;;-1.62;100.00
7614;BME280;3848;42.016;23.098;2023-02-17T06:35:47;98332.38;;;-1.59;100.00
7614;BME280;3848;42.016;23.098;2023-02-17T06:38:14;98333.19;;;-1.45;100.00
7614;BME280;3848;42.016;23.098;2023-02-17T06:40:41;98333.44;;;-1.26;100.00
7614;BME280;3848;42.016;23.098;2023-02-17T06:43:08;98332.34;;;-1.16;100.00
7614;BME280;3848;42.016;23.098;2023-02-17T06:45:36;98333.78;;;-1.05;100.00
7614;BME280;3848;42.016;23.098;2023-02-17T06:48:03;98329.59;;;-0.92;100.00
7614;BME280;3848;42.016;23.098;2023-02-17T06:50:30;98327.50;;;-0.84;100.00
7614;BME280;3848;42.016;23.098;2023-02-17T06:52:56;98330.28;;;-0.79;100.00
7614;BME280;3848;42.016;23.098;2023-02-17T06:55:23;98315.03;;;-0.69;100.00
7614;BME280;3848;42.016;23.098;2023-02-17T06:57:50;98317.66;;;-0.51;100.00
7614;BME280;3848;42.016;23.098;2023-02-17T07:00:18;98336.06;;;-0.35;100.00
7614;BME280;3848;42.016;23.098;2023-02-17T07:02:46;98334.09;;;-0.40;100.00
7614;BME280;3848;42.016;23.098;2023-02-17T07:05:13;98322.41;;;-0.56;100.00
7614;BME280;3848;42.016;23.098;2023-02-17T07:07:40;98317.34;;;-0.57;100.00
7614;BME280;3848;42.016;23.098;2023-02-17T07:10:08;98324.69;;;-0.44;100.00
7614;BME280;3848;42.016;23.098;2023-02-17T07:12:35;98306.28;;;-0.46;100.00
7614;BME280;3848;42.016;23.098;2023-02-17T07:15:02;98319.72;;;-0.44;100.00
7614;BME280;3848;42.016;23.098;2023-02-17T07:17:29;98311.28;;;-0.46;100.00
7614;BME280;3848;42.016;23.098;2023-02-17T07:19:57;98311.09;;;-0.35;100.00
7614;BME280;3848;42.016;23.098;2023-02-17T07:22:23;98315.53;;;-0.29;100.00
7614;BME280;3848;42.016;23.098;2023-02-17T07:24:51;98315.94;;;-0.52;100.00
7614;BME280;3848;42.016;23.098;2023-02-17T07:27:18;98317.59;;;-0.53;100.00
7614;BME280;3848;42.016;23.098;2023-02-17T07:29:45;98321.06;;;-0.35;100.00
7614;BME280;3848;42.016;23.098;2023-02-17T07:32:12;98321.00;;;-0.36;100.00
7614;BME280;3848;42.016;23.098;2023-02-17T07:34:38;98323.34;;;-0.39;100.00
7614;BME280;3848;42.016;23.098;2023-02-17T07:37:07;98318.66;;;-0.33;100.00
7614;BME280;3848;42.016;23.098;2023-02-17T07:39:34;98321.22;;;-0.32;100.00
7614;BME280;3848;42.016;23.098;2023-02-17T07:42:01;98332.41;;;-0.25;100.00
7614;BME280;3848;42.016;23.098;2023-02-17T07:44:29;98322.56;;;-0.38;100.00
7614;BME280;3848;42.016;23.098;2023-02-17T07:46:56;98332.88;;;-0.32;100.00
7614;BME280;3848;42.016;23.098;2023-02-17T07:49:23;98327.25;;;-0.28;100.00
7614;BME280;3848;42.016;23.098;2023-02-17T07:51:50;98328.41;;;-0.21;100.00
7614;BME280;3848;42.016;23.098;2023-02-17T07:54:20;98320.25;;;-0.19;100.00
7614;BME280;3848;42.016;23.098;2023-02-17T07:56:47;98312.97;;;0.01;100.00
7614;BME280;3848;42.016;23.098;2023-02-17T07:59:14;98310.84;;;0.24;100.00
7614;BME280;3848;42.016;23.098;2023-02-17T08:01:41;98319.66;;;0.34;100.00
7614;BME280;3848;42.016;23.098;2023-02-17T08:04:08;98312.66;;;0.43;100.00
7614;BME280;3848;42.016;23.098;2023-02-17T08:06:37;98316.88;;;0.44;100.00
7614;BME280;3848;42.016;23.098;2023-02-17T08:09:04;98320.53;;;0.35;100.00
7614;BME280;3848;42.016;23.098;2023-02-17T08:11:50;98317.31;;;0.37;100.00
7614;BME280;3848;42.016;23.098;2023-02-17T08:14:34;98315.75;;;0.39;100.00
7614;BME280;3848;42.016;23.098;2023-02-17T08:17:02;98325.38;;;0.48;100.00
7614;BME280;3848;42.016;23.098;2023-02-17T08:19:29;98327.94;;;0.66;100.00
7614;BME280;3848;42.016;23.098;2023-02-17T08:21:56;98325.03;;;0.74;100.00
7614;BME280;3848;42.016;23.098;2023-02-17T08:24:25;98309.50;;;0.64;100.00
7614;BME280;3848;42.016;23.098;2023-02-17T08:26:54;98333.88;;;1.02;100.00
7614;BME280;3848;42.016;23.098;2023-02-17T08:29:21;98318.41;;;1.27;100.00
7614;BME280;3848;42.016;23.098;2023-02-17T08:31:50;98306.69;;;1.26;100.00
7614;BME280;3848;42.016;23.098;2023-02-17T08:34:18;98316.25;;;1.52;100.00
7614;BME280;3848;42.016;23.098;2023-02-17T08:36:45;98317.44;;;1.60;100.00
7614;BME280;3848;42.016;23.098;2023-02-17T08:39:14;98303.34;;;1.62;100.00
7614;BME280;3848;42.016;23.098;2023-02-17T08:41:43;98309.59;;;1.70;100.00
7614;BME280;3848;42.016;23.098;2023-02-17T08:44:13;98315.06;;;1.81;100.00
7614;BME280;3848;42.016;23.098;2023-02-17T08:46:42;98302.38;;;1.96;100.00
7614;BME280;3848;42.016;23.098;2023-02-17T08:49:09;98306.69;;;2.18;100.00
7614;BME280;3848;42.016;23.098;2023-02-17T08:51:37;98318.22;;;2.53;100.00
7614;BME280;3848;42.016;23.098;2023-02-17T08:54:05;98308.94;;;2.50;100.00
7614;BME280;3848;42.016;23.098;2023-02-17T08:56:35;98301.47;;;2.52;100.00
7614;BME280;3848;42.016;23.098;2023-02-17T08:59:05;98299.69;;;2.70;100.00
7614;BME280;3848;42.016;23.098;2023-02-17T09:01:34;98290.69;;;2.73;100.00
7614;BME280;3848;42.016;23.098;2023-02-17T09:04:03;98302.81;;;3.04;100.00
7614;BME280;3848;42.016;23.098;2023-02-17T09:06:34;98295.56;;;3.33;100.00
7614;BME280;3848;42.016;23.098;2023-02-17T09:09:03;98287.25;;;3.34;100.00
7614;BME280;3848;42.016;23.098;2023-02-17T09:11:30;98277.44;;;3.62;100.00
7614;BME280;3848;42.016;23.098;2023-02-17T09:13:57;98283.00;;;3.76;100.00
7614;BME280;3848;42.016;23.098;2023-02-17T09:16:24;98269.66;;;4.01;100.00
7614;BME280;3848;42.016;23.098;2023-02-17T09:18:52;98266.81;;;4.16;100.00
7614;BME280;3848;42.016;23.098;2023-02-17T09:21:19;98275.06;;;4.36;100.00
7614;BME280;3848;42.016;23.098;2023-02-17T09:23:47;98263.97;;;4.31;100.00
7614;BME280;3848;42.016;23.098;2023-02-17T09:26:15;98270.59;;;4.52;100.00
7614;BME280;3848;42.016;23.098;2023-02-17T09:28:42;98268.84;;;4.50;100.00
7614;BME280;3848;42.016;23.098;2023-02-17T09:31:10;98261.50;;;4.56;100.00
7614;BME280;3848;42.016;23.098;2023-02-17T09:33:38;98261.41;;;4.53;100.00
7614;BME280;3848;42.016;23.098;2023-02-17T09:36:08;98267.75;;;4.67;100.00
7614;BME280;3848;42.016;23.098;2023-02-17T09:38:37;98253.06;;;4.79;100.00
7614;BME280;3848;42.016;23.098;2023-02-17T09:41:12;98257.59;;;5.43;100.00
7614;BME280;3848;42.016;23.098;2023-02-17T09:43:40;98247.00;;;6.12;100.00
7614;BME280;3848;42.016;23.098;2023-02-17T09:46:11;98250.78;;;6.59;100.00
7614;BME280;3848;42.016;23.098;2023-02-17T09:48:41;98237.88;;;7.16;100.00
7614;BME280;3848;42.016;23.098;2023-02-17T09:51:16;98234.34;;;7.88;100.00
7614;BME280;3848;42.016;23.098;2023-02-17T09:53:51;98218.03;;;8.60;91.89
7614;BME280;3848;42.016;23.098;2023-02-17T09:56:24;98213.31;;;8.79;83.29
7614;BME280;3848;42.016;23.098;2023-02-17T09:58:57;98205.03;;;9.48;80.60
7614;BME280;3848;42.016;23.098;2023-02-17T10:01:31;98200.34;;;9.77;75.09
7614;BME280;3848;42.016;23.098;2023-02-17T10:04:06;98193.81;;;9.98;71.15
7614;BME280;3848;42.016;23.098;2023-02-17T10:06:38;98195.84;;;10.26;70.78
7614;BME280;3848;42.016;23.098;2023-02-17T10:09:12;98180.91;;;10.57;68.92
7614;BME280;3848;42.016;23.098;2023-02-17T10:11:50;98161.50;;;10.65;65.57
7614;BME280;3848;42.016;23.098;2023-02-17T10:14:21;98161.53;;;10.68;63.76
7614;BME280;3848;42.016;23.098;2023-02-17T10:16:55;98168.56;;;11.04;65.73
7614;BME280;3848;42.016;23.098;2023-02-17T10:19:27;98171.38;;;11.45;61.65
7614;BME280;3848;42.016;23.098;2023-02-17T10:22:03;98163.09;;;11.89;61.02
7614;BME280;3848;42.016;23.098;2023-02-17T10:24:31;98152.75;;;11.58;60.92
7614;BME280;3848;42.016;23.098;2023-02-17T10:27:19;98153.78;;;11.94;58.71
7614;BME280;3848;42.016;23.098;2023-02-17T10:29:59;98145.34;;;12.18;61.18
7614;BME280;3848;42.016;23.098;2023-02-17T10:32:27;98141.09;;;12.28;56.26
7614;BME280;3848;42.016;23.098;2023-02-17T10:35:12;98125.81;;;12.41;56.23
7614;BME280;3848;42.016;23.098;2023-02-17T10:37:45;98119.03;;;12.56;55.73
7614;BME280;3848;42.016;23.098;2023-02-17T10:40:17;98108.78;;;13.06;57.44
7614;BME280;3848;42.016;23.098;2023-02-17T10:42:46;98107.00;;;13.46;53.39
7614;BME280;3848;42.016;23.098;2023-02-17T10:45:20;98105.34;;;13.10;54.19
7614;BME280;3848;42.016;23.098;2023-02-17T10:47:51;98095.84;;;13.67;54.26
7614;BME280;3848;42.016;23.098;2023-02-17T10:50:22;98089.00;;;13.75;50.78
7614;BME280;3848;42.016;23.098;2023-02-17T10:52:52;98088.97;;;13.78;51.29
7614;BME280;3848;42.016;23.098;2023-02-17T10:55:28;98082.06;;;13.94;50.53
7614;BME280;3848;42.016;23.098;2023-02-17T10:58:14;98074.13;;;14.30;49.77
7614;BME280;3848;42.016;23.098;2023-02-17T11:00:46;98072.34;;;14.42;48.68
7614;BME280;3848;42.016;23.098;2023-02-17T11:03:18;98067.19;;;14.49;49.59
7614;BME280;3848;42.016;23.098;2023-02-17T11:05:52;98067.78;;;14.82;50.64
7614;BME280;3848;42.016;23.098;2023-02-17T11:08:29;98056.69;;;14.80;50.48
7614;BME280;3848;42.016;23.098;2023-02-17T11:11:02;98054.06;;;14.86;47.61
7614;BME280;3848;42.016;23.098;2023-02-17T11:13:34;98040.47;;;14.81;47.37
7614;BME280;3848;42.016;23.098;2023-02-17T11:16:02;98034.13;;;15.14;47.33
7614;BME280;3848;42.016;23.098;2023-02-17T11:18:32;98029.19;;;14.99;45.72
7614;BME280;3848;42.016;23.098;2023-02-17T11:21:02;98027.94;;;15.32;46.87
7614;BME280;3848;42.016;23.098;2023-02-17T11:23:30;98016.50;;;15.57;50.94
7614;BME280;3848;42.016;23.098;2023-02-17T11:26:00;98012.19;;;15.65;44.89
7614;BME280;3848;42.016;23.098;2023-02-17T11:28:27;97998.00;;;15.98;46.74
7614;BME280;3848;42.016;23.098;2023-02-17T11:30:56;98000.00;;;16.33;45.28
7614;BME280;3848;42.016;23.098;2023-02-17T11:33:30;97986.78;;;16.55;44.34
7614;BME280;3848;42.016;23.098;2023-02-17T11:35:57;97980.44;;;16.28;44.39
7614;BME280;3848;42.016;23.098;2023-02-17T11:38:26;97988.38;;;16.62;44.53
7614;BME280;3848;42.016;23.098;2023-02-17T11:40:57;97973.41;;;15.87;44.27
7614;BME280;3848;42.016;23.098;2023-02-17T11:43:25;97968.88;;;16.04;42.95
7614;BME280;3848;42.016;23.098;2023-02-17T11:46:10;97967.25;;;16.48;43.64
7614;BME280;3848;42.016;23.098;2023-02-17T11:49:01;97970.28;;;16.20;43.74
7614;BME280;3848;42.016;23.098;2023-02-17T11:51:44;97961.06;;;16.58;43.62
7614;BME280;3848;42.016;23.098;2023-02-17T11:54:20;97950.53;;;16.27;43.47
7614;BME280;3848;42.016;23.098;2023-02-17T11:56:59;97950.91;;;16.53;42.47
7614;BME280;3848;42.016;23.098;2023-02-17T11:59:42;97935.31;;;16.62;43.93
7614;BME280;3848;42.016;23.098;2023-02-17T12:02:17;97943.03;;;16.61;41.39
7614;BME280;3848;42.016;23.098;2023-02-17T12:05:05;97925.66;;;17.18;40.95
7614;BME280;3848;42.016;23.098;2023-02-17T12:07:44;97931.81;;;17.48;41.17
7614;BME280;3848;42.016;23.098;2023-02-17T12:10:19;97927.69;;;17.02;40.25
7614;BME280;3848;42.016;23.098;2023-02-17T12:12:59;97928.72;;;16.95;42.46
7614;BME280;3848;42.016;23.098;2023-02-17T12:15:48;97915.06;;;17.72;43.43
7614;BME280;3848;42.016;23.098;2023-02-17T12:18:32;97918.44;;;17.74;39.43
7614;BME280;3848;42.016;23.098;2023-02-17T12:21:07;97916.13;;;17.60;39.76
7614;BME280;3848;42.016;23.098;2023-02-17T12:23:49;97896.88;;;17.41;39.74
7614;BME280;3848;42.016;23.098;2023-02-17T12:26:28;97897.94;;;17.70;39.09
7614;BME280;3848;42.016;23.098;2023-02-17T12:29:12;97899.19;;;17.53;40.03
7614;BME280;3848;42.016;23.098;2023-02-17T12:31:55;97890.44;;;17.23;39.34
7614;BME280;3848;42.016;23.098;2023-02-17T12:34:29;97888.66;;;17.25;40.26
7614;BME280;3848;42.016;23.098;2023-02-17T12:36:58;97880.38;;;17.51;39.44
7614;BME280;3848;42.016;23.098;2023-02-17T12:39:28;97881.50;;;17.40;39.02
7614;BME280;3848;42.016;23.098;2023-02-17T12:41:59;97874.25;;;16.80;41.67
7614;BME280;3848;42.016;23.098;2023-02-17T12:44:31;97880.47;;;16.69;40.43
7614;BME280;3848;42.016;23.098;2023-02-17T12:47:03;97883.53;;;16.42;41.56
7614;BME280;3848;42.016;23.098;2023-02-17T12:49:40;97874.44;;;16.27;41.21
7614;BME280;3848;42.016;23.098;2023-02-17T12:52:12;97862.94;;;16.00;40.78
7614;BME280;3848;42.016;23.098;2023-02-17T12:55:02;97871.94;;;16.23;40.71
7614;BME280;3848;42.016;23.098;2023-02-17T12:57:37;97868.16;;;16.42;40.58
7614;BME280;3848;42.016;23.098;2023-02-17T13:00:24;97868.31;;;16.34;41.96
7614;BME280;3848;42.016;23.098;2023-02-17T13:02:56;97861.28;;;16.42;42.17
7614;BME280;3848;42.016;23.098;2023-02-17T13:05:28;97869.38;;;16.24;42.14
7614;BME280;3848;42.016;23.098;2023-02-17T13:07:58;97866.00;;;15.73;42.24
7614;BME280;3848;42.016;23.098;2023-02-17T13:10:31;97857.69;;;15.55;42.96
7614;BME280;3848;42.016;23.098;2023-02-17T13:13:01;97855.38;;;15.42;42.96
7614;BME280;3848;42.016;23.098;2023-02-17T13:15:44;97855.72;;;15.17;44.90
7614;BME280;3848;42.016;23.098;2023-02-17T13:18:13;97851.56;;;15.10;44.24
7614;BME280;3848;42.016;23.098;2023-02-17T13:20:56;97847.31;;;15.09;42.50
7614;BME280;3848;42.016;23.098;2023-02-17T13:23:36;97856.94;;;14.92;43.48
7614;BME280;3848;42.016;23.098;2023-02-17T13:26:22;97847.63;;;14.88;43.46
7614;BME280;3848;42.016;23.098;2023-02-17T13:28:51;97842.53;;;14.86;43.85
7614;BME280;3848;42.016;23.098;2023-02-17T13:31:28;97824.63;;;14.85;44.82
7614;BME280;3848;42.016;23.098;2023-02-17T13:33:56;97827.03;;;14.95;43.40